createdAt,value
2018-11-05T00:01:37.695Z,19.43
2018-11-05T00:04:08.622Z,22.87
2018-11-05T00:06:36.368Z,20.87
2018-11-05T00:09:07.019Z,21.23
2018-11-05T00:11:34.531Z,21.63
2018-11-05T00:14:02.179Z,21.40
2018-11-05T00:16:29.735Z,21.77
2018-11-05T00:18:57.299Z,21.30
2018-11-05T00:21:24.915Z,22.57
2018-11-05T00:23:56.763Z,20.50
2018-11-05T00:26:25.078Z,19.73
2018-11-05T00:28:53.042Z,19.40
2018-11-05T00:31:22.853Z,20.60
2018-11-05T00:34:02.007Z,19.60
2018-11-05T00:36:35.733Z,18.60
2018-11-05T00:39:04.974Z,18.10
2018-11-05T00:41:40.399Z,18.50
2018-11-05T00:44:13.193Z,18.07
2018-11-05T00:46:44.181Z,18.77
2018-11-05T00:49:11.909Z,18.00
2018-11-05T00:51:45.397Z,17.87
2018-11-05T00:54:14.941Z,16.57
2018-11-05T00:56:47.168Z,17.20
2018-11-05T00:59:14.692Z,15.90
2018-11-05T01:01:48.921Z,18.00
2018-11-05T01:04:18.066Z,21.83
2018-11-05T01:06:53.326Z,18.70
2018-11-05T01:09:21.286Z,19.07
2018-11-05T01:11:50.464Z,17.83
2018-11-05T01:14:18.685Z,17.63
2018-11-05T01:16:46.413Z,18.17
2018-11-05T01:19:14.003Z,17.60
2018-11-05T01:21:41.669Z,17.87
2018-11-05T01:24:12.067Z,17.17
2018-11-05T01:26:39.733Z,18.13
2018-11-05T01:29:07.227Z,17.23
2018-11-05T01:31:42.878Z,17.40
2018-11-05T01:34:11.969Z,15.80
2018-11-05T01:36:46.131Z,15.03
2018-11-05T01:39:20.860Z,15.07
2018-11-05T01:41:54.319Z,15.30
2018-11-05T01:44:22.138Z,15.10
2018-11-05T01:46:49.955Z,15.07
2018-11-05T01:49:17.575Z,13.50
2018-11-05T01:51:45.866Z,15.47
2018-11-05T01:54:13.697Z,15.87
2018-11-05T01:56:41.287Z,14.40
2018-11-05T01:59:08.814Z,14.07
2018-11-05T02:01:36.663Z,13.93
2018-11-05T02:04:05.291Z,15.43
2018-11-05T02:06:32.981Z,14.90
2018-11-05T02:09:00.619Z,14.87
2018-11-05T02:11:28.177Z,14.13
2018-11-05T02:14:01.025Z,14.77
2018-11-05T02:16:28.791Z,14.20
2018-11-05T02:19:04.710Z,13.37
2018-11-05T02:21:42.715Z,14.70
2018-11-05T02:24:12.674Z,14.03
2018-11-05T02:26:40.175Z,13.33
2018-11-05T02:29:07.733Z,12.50
2018-11-05T02:31:35.811Z,12.73
2018-11-05T02:34:06.579Z,13.03
2018-11-05T02:36:34.312Z,12.37
2018-11-05T02:39:05.464Z,12.90
2018-11-05T02:41:33.167Z,12.27
2018-11-05T02:44:00.765Z,13.23
2018-11-05T02:46:32.304Z,13.20
2018-11-05T02:49:01.214Z,14.10
2018-11-05T02:51:28.804Z,12.63
2018-11-05T02:53:56.338Z,13.27
2018-11-05T02:56:25.179Z,13.33
2018-11-05T02:58:56.434Z,12.93
2018-11-05T03:01:25.073Z,12.80
2018-11-05T03:03:58.159Z,12.07
2018-11-05T03:06:25.739Z,11.53
2018-11-05T03:08:55.878Z,10.57
2018-11-05T03:11:30.137Z,10.87
2018-11-05T03:13:58.527Z,9.90
2018-11-05T03:16:31.318Z,10.03
2018-11-05T03:19:01.417Z,10.23
2018-11-05T03:21:29.096Z,10.07
2018-11-05T03:23:57.602Z,10.50
2018-11-05T03:26:26.593Z,9.97
2018-11-05T03:28:54.426Z,10.10
2018-11-05T03:31:22.229Z,9.70
2018-11-05T03:33:49.759Z,10.37
2018-11-05T03:36:17.446Z,9.73
2018-11-05T03:38:45.110Z,10.10
2018-11-05T03:41:13.270Z,9.87
2018-11-05T03:43:46.361Z,10.30
2018-11-05T03:46:14.335Z,8.83
2018-11-05T03:48:44.909Z,10.77
2018-11-05T03:51:16.571Z,10.47
2018-11-05T03:53:46.143Z,9.83
2018-11-05T03:56:18.293Z,10.37
2018-11-05T03:58:51.410Z,11.47
2018-11-05T04:01:21.882Z,10.10
2018-11-05T04:03:51.844Z,10.67
2018-11-05T04:06:19.559Z,12.40
2018-11-05T04:08:47.189Z,11.23
2018-11-05T04:11:19.404Z,11.70
2018-11-05T04:13:48.327Z,12.67
2018-11-05T04:16:19.876Z,13.97
2018-11-05T04:18:50.178Z,14.40
2018-11-05T04:21:17.799Z,15.03
2018-11-05T04:23:47.364Z,14.67
2018-11-05T04:26:17.435Z,15.37
2018-11-05T04:28:46.273Z,14.07
2018-11-05T04:31:17.037Z,12.63
2018-11-05T04:33:50.103Z,13.83
2018-11-05T04:36:21.934Z,13.07
2018-11-05T04:38:50.734Z,14.20
2018-11-05T04:41:22.096Z,13.37
2018-11-05T04:43:49.985Z,13.40
2018-11-05T04:46:17.678Z,13.07
2018-11-05T04:48:45.515Z,13.33
2018-11-05T04:51:13.622Z,14.17
2018-11-05T04:53:41.393Z,13.53
2018-11-05T04:56:09.088Z,13.10
2018-11-05T04:58:37.107Z,12.87
2018-11-05T05:01:04.811Z,11.60
2018-11-05T05:03:32.421Z,11.60
2018-11-05T05:05:59.968Z,11.40
2018-11-05T05:08:27.619Z,12.53
2018-11-05T05:10:56.079Z,11.47
2018-11-05T05:13:23.623Z,11.37
2018-11-05T05:15:51.241Z,10.17
2018-11-05T05:18:18.962Z,11.00
2018-11-05T05:20:46.730Z,11.07
2018-11-05T05:23:14.495Z,10.10
2018-11-05T05:25:42.183Z,10.17
2018-11-05T05:28:09.695Z,10.87
2018-11-05T05:30:37.235Z,10.63
2018-11-05T05:33:05.006Z,11.63
2018-11-05T05:35:32.802Z,11.03
2018-11-05T05:38:00.779Z,10.63
2018-11-05T05:40:28.552Z,10.53
2018-11-05T05:42:56.448Z,12.43
2018-11-05T05:45:24.056Z,12.37
2018-11-05T05:47:51.720Z,13.43
2018-11-05T05:50:21.685Z,14.43
2018-11-05T05:52:49.552Z,13.63
2018-11-05T05:55:17.213Z,13.83
2018-11-05T05:57:45.288Z,13.40
2018-11-05T06:00:16.385Z,13.00
2018-11-05T06:02:43.907Z,13.47
2018-11-05T06:05:12.603Z,13.43
2018-11-05T06:07:40.711Z,36.93
2018-11-05T06:10:09.890Z,18.20
2018-11-05T06:12:37.390Z,14.97
2018-11-05T06:15:06.840Z,14.33
2018-11-05T06:17:34.409Z,15.43
2018-11-05T06:20:01.938Z,15.43
2018-11-05T06:22:29.946Z,16.13
2018-11-05T06:24:58.110Z,16.60
2018-11-05T06:27:25.641Z,15.67
2018-11-05T06:29:53.266Z,15.17
2018-11-05T06:32:20.783Z,17.13
2018-11-05T06:34:48.369Z,16.80
2018-11-05T06:37:16.153Z,17.90
2018-11-05T06:39:45.952Z,17.47
2018-11-05T06:42:13.540Z,28.67
2018-11-05T06:44:41.279Z,31.20
2018-11-05T06:47:08.873Z,28.30
2018-11-05T06:49:36.415Z,35.67
2018-11-05T06:52:04.048Z,44.57
2018-11-05T06:54:31.833Z,47.77
2018-11-05T06:56:59.412Z,50.53
2018-11-05T06:59:27.049Z,47.60
2018-11-05T07:01:54.806Z,45.17
2018-11-05T07:04:22.364Z,37.17
2018-11-05T07:06:50.061Z,36.90
2018-11-05T07:09:18.024Z,30.07
2018-11-05T07:11:45.752Z,35.53
2018-11-05T07:14:13.408Z,30.03
2018-11-05T07:16:41.625Z,34.93
2018-11-05T07:19:09.520Z,30.73
2018-11-05T07:21:37.056Z,31.23
2018-11-05T07:24:04.715Z,33.60
2018-11-05T07:26:32.390Z,33.53
2018-11-05T07:29:00.336Z,36.57
2018-11-05T07:31:27.991Z,39.33
2018-11-05T07:33:55.947Z,45.13
2018-11-05T07:36:23.655Z,41.33
2018-11-05T07:38:52.579Z,37.30
2018-11-05T07:41:20.929Z,39.90
2018-11-05T07:43:48.737Z,36.70
2018-11-05T07:46:16.433Z,36.73
2018-11-05T07:48:44.577Z,36.23
2018-11-05T07:51:12.556Z,38.17
2018-11-05T07:53:40.420Z,39.33
2018-11-05T07:56:08.095Z,34.73
2018-11-05T07:58:36.341Z,34.27
2018-11-05T08:01:05.957Z,35.80
2018-11-05T08:03:33.852Z,37.50
2018-11-05T08:06:02.789Z,36.23
2018-11-05T08:08:30.615Z,35.60
2018-11-05T08:11:00.129Z,35.37
2018-11-05T08:13:30.648Z,36.13
2018-11-05T08:16:02.729Z,36.03
2018-11-05T08:18:30.596Z,34.73
2018-11-05T08:20:58.280Z,35.23
2018-11-05T08:23:26.094Z,36.13
2018-11-05T08:25:54.568Z,36.67
2018-11-05T08:28:22.502Z,35.63
2018-11-05T08:30:50.527Z,34.40
2018-11-05T08:33:18.254Z,34.60
2018-11-05T08:35:48.938Z,33.60
2018-11-05T08:38:17.116Z,33.37
2018-11-05T08:40:44.986Z,33.63
2018-11-05T08:43:12.900Z,35.20
2018-11-05T08:48:27.596Z,34.50
2018-11-05T08:50:55.843Z,34.93
2018-11-05T08:53:24.724Z,33.80
2018-11-05T08:55:56.245Z,33.73
2018-11-05T09:01:19.065Z,33.60
2018-11-05T09:03:51.220Z,33.63
2018-11-05T09:06:21.691Z,32.80
2018-11-05T09:08:53.514Z,32.20
2018-11-05T09:11:21.734Z,30.80
2018-11-05T09:13:48.935Z,30.77
2018-11-05T09:16:22.716Z,31.23
2018-11-05T09:18:51.936Z,29.77
2018-11-05T09:21:19.686Z,29.57
2018-11-05T09:23:47.415Z,30.13
2018-11-05T09:26:15.051Z,30.37
2018-11-05T09:28:42.709Z,34.17
2018-11-05T09:31:10.371Z,33.53
2018-11-05T09:33:37.996Z,28.57
2018-11-05T09:36:18.691Z,29.03
2018-11-05T09:38:46.451Z,29.13
2018-11-05T09:41:14.064Z,29.27
2018-11-05T09:43:41.868Z,29.07
2018-11-05T09:46:09.623Z,30.00
2018-11-05T09:48:41.132Z,29.37
2018-11-05T09:51:11.733Z,29.13
2018-11-05T09:53:41.695Z,27.90
2018-11-05T09:56:09.755Z,28.77
2018-11-05T09:58:37.976Z,28.03
2018-11-05T10:01:06.001Z,28.77
2018-11-05T10:03:38.350Z,28.10
2018-11-05T10:06:06.241Z,26.90
2018-11-05T10:08:33.856Z,25.63
2018-11-05T10:11:01.543Z,28.27
2018-11-05T10:13:29.132Z,28.43
2018-11-05T10:15:59.643Z,27.00
2018-11-05T10:35:19.606Z,26.33
2018-11-05T10:37:50.025Z,27.23
2018-11-05T10:40:19.695Z,26.40
2018-11-05T10:42:51.116Z,26.57
2018-11-05T10:45:20.957Z,26.17
2018-11-05T10:47:48.805Z,25.67
2018-11-05T10:50:17.615Z,24.57
2018-11-05T10:52:47.004Z,25.17
2018-11-05T10:55:17.930Z,23.60
2018-11-05T10:57:50.581Z,25.60
2018-11-05T11:03:11.442Z,24.20
2018-11-05T11:05:52.053Z,23.50
2018-11-05T11:08:23.308Z,24.73
2018-11-05T11:10:58.579Z,24.47
2018-11-05T11:13:28.782Z,24.60
2018-11-05T11:15:59.716Z,23.93
2018-11-05T11:18:31.751Z,24.30
2018-11-05T11:20:59.481Z,24.27
2018-11-05T11:23:27.255Z,24.77
2018-11-05T11:25:54.884Z,24.00
2018-11-05T11:28:22.566Z,23.73
2018-11-05T11:30:50.288Z,25.13
2018-11-05T11:33:27.161Z,24.40
2018-11-05T11:36:01.889Z,23.80
2018-11-05T11:38:38.738Z,23.57
2018-11-05T11:41:08.377Z,21.93
2018-11-05T11:43:41.612Z,21.17
2018-11-05T11:46:09.364Z,21.57
2018-11-05T11:48:36.995Z,21.80
2018-11-05T11:51:04.749Z,21.87
2018-11-05T11:53:32.401Z,21.80
2018-11-05T11:55:59.894Z,21.00
2018-11-05T11:58:27.520Z,21.17
2018-11-05T12:00:58.603Z,22.13
2018-11-05T12:03:28.263Z,20.67
2018-11-05T12:05:59.938Z,20.13
2018-11-05T12:08:28.038Z,21.87
2018-11-05T12:11:02.564Z,21.67
2018-11-05T12:13:40.012Z,21.53
2018-11-05T12:16:09.804Z,20.00
2018-11-05T12:18:37.374Z,20.53
2018-11-05T12:21:05.071Z,20.50
2018-11-05T12:23:33.314Z,20.80
2018-11-05T12:26:05.298Z,20.43
2018-11-05T12:28:40.450Z,21.13
2018-11-05T12:31:12.184Z,20.10
2018-11-05T12:33:39.965Z,22.27
2018-11-05T12:36:07.578Z,21.43
2018-11-05T12:38:35.844Z,20.67
2018-11-05T12:41:03.569Z,20.70
2018-11-05T12:43:34.473Z,20.73
2018-11-05T12:46:04.446Z,21.17
2018-11-05T12:48:35.337Z,21.13
2018-11-05T12:51:03.148Z,21.37
2018-11-05T12:53:30.755Z,21.23
2018-11-05T12:55:58.339Z,21.13
2018-11-05T12:58:25.872Z,21.27
2018-11-05T13:00:53.572Z,21.47
2018-11-05T13:03:21.334Z,20.37
2018-11-05T13:05:49.448Z,21.03
2018-11-05T13:08:17.428Z,21.47
2018-11-05T13:10:46.410Z,21.93
2018-11-05T13:13:16.166Z,21.33
2018-11-05T13:15:44.083Z,22.10
2018-11-05T13:18:14.972Z,22.13
2018-11-05T13:20:46.285Z,21.63
2018-11-05T13:23:19.136Z,21.33
2018-11-05T13:25:47.083Z,22.07
2018-11-05T13:28:21.331Z,22.30
2018-11-05T13:30:49.311Z,21.67
2018-11-05T13:33:18.983Z,21.57
2018-11-05T13:35:46.671Z,21.40
2018-11-05T13:38:17.363Z,22.17
2018-11-05T13:40:44.767Z,21.43
2018-11-05T13:43:12.502Z,22.07
2018-11-05T13:45:40.567Z,22.57
2018-11-05T13:48:08.393Z,20.70
2018-11-05T13:50:35.691Z,22.43
2018-11-05T13:53:03.284Z,23.27
2018-11-05T13:55:30.869Z,22.77
2018-11-05T13:57:58.775Z,22.60
2018-11-05T14:00:27.280Z,22.27
2018-11-05T14:02:54.877Z,23.07
2018-11-05T14:05:22.480Z,22.53
2018-11-05T14:07:50.133Z,22.60
2018-11-05T14:10:20.693Z,23.13
2018-11-05T14:12:48.799Z,23.17
2018-11-05T14:15:16.391Z,24.87
2018-11-05T14:17:44.829Z,23.33
2018-11-05T14:20:17.466Z,24.20
2018-11-05T14:22:45.330Z,23.83
2018-11-05T14:25:15.170Z,24.80
2018-11-05T14:27:44.130Z,24.47
2018-11-05T14:30:12.460Z,23.77
2018-11-05T14:32:41.701Z,24.87
2018-11-05T14:35:09.566Z,27.03
2018-11-05T14:37:37.190Z,24.50
2018-11-05T14:40:05.835Z,23.43
2018-11-05T14:42:33.687Z,24.90
2018-11-05T14:45:01.632Z,24.40
2018-11-05T14:47:29.560Z,24.67
2018-11-05T14:49:57.226Z,23.57
2018-11-05T14:52:24.858Z,23.93
2018-11-05T14:54:53.194Z,24.73
2018-11-05T14:57:20.965Z,24.23
2018-11-05T14:59:48.597Z,24.57
2018-11-05T15:02:21.977Z,23.77
2018-11-05T15:04:49.702Z,25.00
2018-11-05T15:07:17.368Z,24.70
2018-11-05T15:09:45.057Z,24.97
2018-11-05T15:12:12.821Z,26.00
2018-11-05T15:14:40.726Z,25.47
2018-11-05T15:17:08.407Z,25.23
2018-11-05T15:19:36.366Z,25.00
2018-11-05T15:22:03.722Z,26.33
2018-11-05T15:24:31.275Z,24.83
2018-11-05T15:26:59.725Z,24.83
2018-11-05T15:29:27.389Z,25.30
2018-11-05T15:31:55.007Z,25.47
2018-11-05T15:34:22.625Z,26.87
2018-11-05T15:36:50.383Z,25.03
2018-11-05T15:39:18.122Z,25.40
2018-11-05T15:41:45.648Z,25.57
2018-11-05T15:44:13.359Z,26.57
2018-11-05T15:46:41.265Z,27.00
2018-11-05T15:49:08.878Z,26.70
2018-11-05T15:51:36.852Z,26.97
2018-11-05T15:54:04.681Z,26.93
2018-11-05T15:56:32.551Z,29.53
2018-11-05T15:59:00.215Z,28.57
2018-11-05T16:01:27.922Z,29.10
2018-11-05T16:03:55.563Z,27.80
2018-11-05T16:06:23.403Z,28.77
2018-11-05T16:08:51.291Z,28.17
2018-11-05T16:11:19.049Z,30.23
2018-11-05T16:13:46.780Z,29.70
2018-11-05T16:16:14.648Z,30.73
2018-11-05T16:18:42.464Z,31.23
2018-11-05T16:21:10.011Z,31.47
2018-11-05T16:23:37.870Z,30.27
2018-11-05T16:26:06.175Z,33.40
2018-11-05T16:28:33.859Z,31.70
2018-11-05T16:31:01.494Z,32.87
2018-11-05T16:33:29.214Z,31.37
2018-11-05T16:35:57.268Z,31.50
2018-11-05T16:38:24.919Z,32.23
2018-11-05T16:40:53.156Z,31.47
2018-11-05T16:43:22.116Z,32.60
2018-11-05T16:45:50.113Z,32.10
2018-11-05T16:48:18.195Z,33.20
2018-11-05T16:50:46.384Z,31.33
2018-11-05T16:53:14.571Z,31.70
2018-11-05T16:55:42.682Z,32.47
2018-11-05T16:58:10.721Z,34.40
2018-11-05T17:00:38.861Z,33.33
2018-11-05T17:03:07.293Z,33.80
2018-11-05T17:05:35.376Z,33.50
2018-11-05T17:08:03.462Z,35.30
2018-11-05T17:10:31.468Z,35.87
2018-11-05T17:12:59.563Z,34.07
2018-11-05T17:15:27.539Z,34.27
2018-11-05T17:17:55.633Z,33.87
2018-11-05T17:20:23.802Z,35.03
2018-11-05T17:22:51.876Z,35.07
2018-11-05T17:25:20.089Z,36.27
2018-11-05T17:27:48.589Z,36.00
2018-11-05T17:30:20.062Z,36.43
2018-11-05T17:32:48.330Z,34.27
2018-11-05T17:35:16.764Z,34.30
2018-11-05T17:37:45.776Z,35.07
2018-11-05T17:40:15.620Z,35.47
2018-11-05T17:42:44.020Z,34.30
2018-11-05T17:45:13.822Z,34.50
2018-11-05T17:47:42.014Z,35.77
2018-11-05T17:50:13.880Z,35.57
2018-11-05T17:52:42.668Z,36.13
2018-11-05T17:55:12.185Z,34.53
2018-11-05T17:57:42.148Z,34.23
2018-11-05T18:00:13.289Z,33.17
2018-11-05T18:02:41.407Z,34.60
2018-11-05T18:05:09.528Z,34.77
2018-11-05T18:07:38.571Z,35.50
2018-11-05T18:10:07.300Z,35.10
2018-11-05T18:12:36.046Z,35.43
2018-11-05T18:15:05.699Z,34.60
2018-11-05T18:17:34.191Z,34.47
2018-11-05T18:20:02.826Z,33.57
2018-11-05T18:22:30.821Z,34.03
2018-11-05T18:24:59.052Z,32.37
2018-11-05T18:27:27.986Z,33.90
2018-11-05T18:29:56.155Z,33.53
2018-11-05T18:32:24.199Z,33.97
2018-11-05T18:34:52.649Z,32.80
2018-11-05T18:37:20.970Z,33.70
2018-11-05T18:39:48.990Z,34.07
2018-11-05T18:42:17.044Z,31.63
2018-11-05T18:44:45.287Z,34.07
2018-11-05T18:47:13.443Z,32.63
2018-11-05T18:49:41.666Z,33.53
2018-11-05T18:52:10.454Z,32.73
2018-11-05T18:54:39.510Z,33.20
2018-11-05T18:57:08.269Z,32.27
2018-11-05T18:59:36.795Z,31.70
2018-11-05T19:02:05.397Z,31.50
2018-11-05T19:04:33.477Z,32.20
2018-11-05T19:07:01.981Z,32.73
2018-11-05T19:09:30.216Z,32.97
2018-11-05T19:11:58.253Z,31.97
2018-11-05T19:14:26.304Z,31.83
2018-11-05T19:16:54.285Z,33.07
2018-11-05T19:19:22.803Z,32.77
2018-11-05T19:21:50.959Z,30.50
2018-11-05T19:24:19.395Z,31.50
2018-11-05T19:26:47.791Z,32.00
2018-11-05T19:29:16.255Z,30.73
2018-11-05T19:31:44.400Z,31.13
2018-11-05T19:34:12.549Z,30.80
2018-11-05T19:36:40.764Z,30.93
2018-11-05T19:39:10.576Z,30.43
2018-11-05T19:41:38.804Z,30.30
2018-11-05T19:44:07.985Z,30.90
2018-11-05T19:46:36.807Z,30.90
2018-11-05T19:49:08.331Z,31.30
2018-11-05T19:51:41.204Z,30.67
2018-11-05T19:54:12.467Z,31.00
2018-11-05T19:56:44.248Z,31.33
2018-11-05T19:59:13.857Z,30.33
2018-11-05T20:04:31.060Z,31.30
2018-11-05T20:09:46.546Z,30.53
2018-11-05T20:12:19.408Z,30.73
2018-11-05T20:14:50.995Z,31.63
2018-11-05T20:17:23.337Z,30.57
2018-11-05T20:19:57.490Z,30.47
2018-11-05T20:22:46.027Z,29.53
2018-11-05T20:25:14.039Z,30.87
2018-11-05T20:27:43.492Z,31.97
2018-11-05T20:30:15.800Z,31.27
2018-11-05T20:32:49.030Z,31.67
2018-11-05T20:35:19.941Z,30.90
2018-11-05T20:37:49.878Z,31.87
2018-11-05T20:40:23.239Z,31.37
2018-11-05T20:42:53.962Z,31.27
2018-11-05T20:45:24.501Z,31.27
2018-11-05T20:47:58.904Z,30.47
2018-11-05T20:50:27.435Z,28.67
2018-11-05T20:52:57.743Z,30.00
2018-11-05T20:55:26.733Z,30.97
2018-11-05T20:57:55.673Z,30.00
2018-11-05T21:00:23.652Z,31.27
2018-11-05T21:02:51.542Z,30.50
2018-11-05T21:05:20.659Z,30.90
2018-11-05T21:07:48.522Z,30.83
2018-11-05T21:10:24.301Z,29.93
2018-11-05T21:12:56.260Z,30.93
2018-11-05T21:15:24.693Z,31.03
2018-11-05T21:17:54.994Z,31.17
2018-11-05T21:20:23.485Z,30.87
2018-11-05T21:22:53.696Z,31.60
2018-11-05T21:25:25.650Z,30.83
2018-11-05T21:27:55.315Z,31.13
2018-11-05T21:30:23.528Z,31.50
2018-11-05T21:32:51.453Z,31.60
2018-11-05T21:35:21.145Z,29.43
2018-11-05T21:37:50.046Z,31.77
2018-11-05T21:40:21.582Z,29.83
2018-11-05T21:42:51.168Z,30.60
2018-11-05T21:45:19.022Z,29.87
2018-11-05T21:47:46.594Z,30.87
2018-11-05T21:50:15.860Z,30.67
2018-11-05T21:52:44.262Z,31.90
2018-11-05T21:55:11.897Z,31.73
2018-11-05T21:57:41.848Z,30.60
2018-11-05T22:00:18.458Z,30.73
2018-11-05T22:02:51.735Z,30.57
2018-11-05T22:05:19.514Z,31.03
2018-11-05T22:07:47.729Z,29.07
2018-11-05T22:10:15.345Z,31.47
2018-11-05T22:12:43.716Z,29.57
2018-11-05T22:15:12.478Z,29.97
2018-11-05T22:17:40.429Z,29.97
2018-11-05T22:20:09.619Z,30.83
2018-11-05T22:22:37.951Z,31.03
2018-11-05T22:25:05.748Z,32.73
2018-11-05T22:27:33.596Z,31.30
2018-11-05T22:30:01.497Z,31.50
2018-11-05T22:32:29.702Z,30.60
2018-11-05T22:34:58.710Z,31.07
2018-11-05T22:37:26.658Z,31.53
2018-11-05T22:39:54.266Z,30.60
2018-11-05T22:42:21.958Z,31.30
2018-11-05T22:44:49.597Z,31.23
2018-11-05T22:47:17.598Z,30.27
2018-11-05T22:49:45.967Z,30.43
2018-11-05T22:52:13.558Z,30.33
2018-11-05T22:54:41.579Z,30.30
2018-11-05T22:57:09.738Z,30.73
2018-11-05T22:59:37.625Z,29.77
2018-11-05T23:02:06.052Z,30.47
2018-11-05T23:04:33.713Z,30.93
2018-11-05T23:07:01.729Z,29.83
2018-11-05T23:09:29.664Z,29.70
2018-11-05T23:11:58.644Z,29.93
2018-11-05T23:14:27.966Z,30.20
2018-11-05T23:16:57.896Z,29.73
2018-11-05T23:19:25.632Z,31.33
2018-11-05T23:21:53.226Z,30.20
2018-11-05T23:24:22.771Z,30.23
2018-11-05T23:26:52.631Z,30.47
2018-11-05T23:29:20.563Z,31.23
2018-11-05T23:31:49.210Z,29.27
2018-11-05T23:34:16.805Z,29.37
2018-11-05T23:36:45.612Z,29.63
2018-11-05T23:39:14.055Z,29.37
2018-11-05T23:41:42.834Z,30.20
2018-11-05T23:44:10.920Z,30.13
2018-11-05T23:46:39.071Z,30.20
2018-11-05T23:49:06.543Z,30.63
2018-11-05T23:51:34.556Z,30.53
2018-11-05T23:54:02.253Z,28.40
2018-11-05T23:56:29.890Z,30.73
2018-11-05T23:58:58.212Z,30.00
